createdAt,value
2023-01-19T00:04:09.539Z,13.30
2023-01-19T00:09:11.227Z,11.63
2023-01-19T00:14:15.258Z,10.53
2023-01-19T00:19:19.094Z,11.43
2023-01-19T00:24:28.110Z,16.13
2023-01-19T00:29:33.455Z,15.37
2023-01-19T00:34:39.685Z,15.83
2023-01-19T00:39:41.466Z,20.23
2023-01-19T00:44:47.909Z,17.00
2023-01-19T00:49:49.862Z,18.53
2023-01-19T00:54:51.581Z,13.93
2023-01-19T00:59:55.592Z,19.60
2023-01-19T01:04:58.302Z,14.27
2023-01-19T01:10:02.197Z,18.67
2023-01-19T01:15:13.265Z,20.77
2023-01-19T01:20:23.421Z,9.67
2023-01-19T01:25:31.124Z,12.37
2023-01-19T01:30:35.556Z,14.40
2023-01-19T01:35:37.484Z,19.13
2023-01-19T01:40:40.481Z,18.87
2023-01-19T01:45:48.056Z,9.30
2023-01-19T01:51:15.399Z,16.17
2023-01-19T01:56:20.626Z,13.90
2023-01-19T02:01:43.573Z,13.50
2023-01-19T02:07:25.198Z,12.57
2023-01-19T02:12:53.790Z,11.37
2023-01-19T02:17:58.468Z,13.90
2023-01-19T02:23:03.893Z,13.63
2023-01-19T02:28:05.704Z,13.97
2023-01-19T02:33:09.599Z,13.77
2023-01-19T02:38:13.788Z,12.53
2023-01-19T02:43:17.415Z,15.30
2023-01-19T02:48:20.598Z,16.30
2023-01-19T02:53:54.799Z,12.47
2023-01-19T02:59:05.319Z,16.63
2023-01-19T03:04:16.868Z,10.87
2023-01-19T03:09:26.669Z,15.03
2023-01-19T03:14:30.105Z,12.07
2023-01-19T03:19:38.104Z,9.40
2023-01-19T03:24:46.461Z,12.67
2023-01-19T03:30:04.763Z,17.67
2023-01-19T03:35:12.885Z,8.93
2023-01-19T03:40:14.744Z,11.83
2023-01-19T03:45:21.667Z,9.47
2023-01-19T03:50:27.222Z,12.10
2023-01-19T03:55:31.346Z,11.83
2023-01-19T04:00:36.480Z,13.23
2023-01-19T04:05:41.578Z,18.00
2023-01-19T04:10:43.231Z,12.07
2023-01-19T04:15:53.930Z,18.80
2023-01-19T04:20:59.458Z,21.17
2023-01-19T04:26:09.028Z,15.27
2023-01-19T04:31:14.520Z,20.37
2023-01-19T04:36:18.517Z,24.17
2023-01-19T04:41:21.314Z,23.30
2023-01-19T04:46:26.604Z,25.23
2023-01-19T04:51:28.825Z,22.63
2023-01-19T04:56:32.969Z,19.63
2023-01-19T05:01:37.066Z,24.87
2023-01-19T05:06:41.945Z,22.83
2023-01-19T05:11:45.159Z,22.13
2023-01-19T05:16:49.226Z,25.10
2023-01-19T05:21:56.275Z,24.57
2023-01-19T05:27:03.871Z,24.33
2023-01-19T05:32:05.946Z,26.40
2023-01-19T05:37:13.243Z,25.43
2023-01-19T05:42:15.028Z,22.73
2023-01-19T05:47:19.271Z,23.97
2023-01-19T05:52:21.864Z,21.67
2023-01-19T05:57:25.599Z,30.43
2023-01-19T06:02:32.257Z,28.67
2023-01-19T06:07:36.224Z,33.47
2023-01-19T06:12:41.792Z,33.47
2023-01-19T06:17:43.596Z,26.93
2023-01-19T06:22:48.085Z,25.70
2023-01-19T06:27:52.409Z,33.50
2023-01-19T06:32:57.943Z,36.30
2023-01-19T06:38:01.985Z,32.80
2023-01-19T06:43:08.700Z,32.63
2023-01-19T06:48:13.706Z,36.73
2023-01-19T06:53:22.225Z,35.87
2023-01-19T06:58:28.476Z,34.87
2023-01-19T07:03:30.764Z,35.60
2023-01-19T07:08:35.372Z,37.63
2023-01-19T07:13:41.130Z,38.63
2023-01-19T07:18:48.449Z,39.93
2023-01-19T07:23:53.636Z,44.50
2023-01-19T07:28:57.702Z,37.23
2023-01-19T07:34:01.762Z,39.67
2023-01-19T07:39:06.938Z,40.83
2023-01-19T07:44:13.451Z,26.37
2023-01-19T07:49:15.196Z,45.10
2023-01-19T07:54:21.819Z,41.67
2023-01-19T07:59:26.282Z,36.80
2023-01-19T08:04:28.404Z,35.50
2023-01-19T08:09:36.105Z,38.13
2023-01-19T08:14:40.063Z,38.57
2023-01-19T08:19:45.084Z,41.20
2023-01-19T08:24:50.422Z,38.67
2023-01-19T08:29:52.330Z,34.43
2023-01-19T08:34:56.587Z,36.80
2023-01-19T08:39:59.086Z,43.03
2023-01-19T08:45:06.826Z,37.83
2023-01-19T08:50:11.940Z,39.50
2023-01-19T08:55:16.710Z,25.17
2023-01-19T09:00:22.278Z,37.53
2023-01-19T09:05:28.823Z,39.93
2023-01-19T09:10:36.073Z,41.50
2023-01-19T09:15:42.456Z,37.43
2023-01-19T09:20:46.397Z,40.20
2023-01-19T09:25:48.735Z,30.47
2023-01-19T09:30:53.109Z,27.93
2023-01-19T09:35:57.712Z,28.63
2023-01-19T09:41:04.351Z,26.47
2023-01-19T09:46:13.067Z,20.20
2023-01-19T09:51:29.811Z,25.17
2023-01-19T09:56:35.605Z,23.07
2023-01-19T10:01:46.743Z,20.50
2023-01-19T10:06:52.106Z,16.13
2023-01-19T10:12:03.531Z,18.47
2023-01-19T10:17:18.187Z,14.43
2023-01-19T10:22:22.268Z,24.67
2023-01-19T10:27:29.651Z,12.93
2023-01-19T10:32:38.671Z,10.60
2023-01-19T10:37:46.132Z,10.90
2023-01-19T10:42:51.282Z,10.30
2023-01-19T10:47:58.178Z,10.77
2023-01-19T10:53:08.006Z,12.00
2023-01-19T10:58:29.188Z,8.20
2023-01-19T11:03:32.264Z,12.43
2023-01-19T11:08:36.446Z,15.73
2023-01-19T11:13:41.993Z,11.97
2023-01-19T11:18:45.707Z,9.43
2023-01-19T11:24:05.776Z,17.33
2023-01-19T11:29:17.118Z,10.70
2023-01-19T11:34:39.296Z,12.00
2023-01-19T11:39:53.796Z,8.83
2023-01-19T11:45:12.582Z,5.40
2023-01-19T11:50:31.384Z,11.57
2023-01-19T11:55:39.219Z,7.77
2023-01-19T12:00:54.896Z,15.87
2023-01-19T12:06:04.226Z,12.13
2023-01-19T12:11:06.789Z,10.40
2023-01-19T12:16:20.910Z,12.63
2023-01-19T12:21:25.977Z,11.87
2023-01-19T12:26:51.507Z,12.00
2023-01-19T12:32:20.218Z,11.43
2023-01-19T12:37:31.670Z,11.17
2023-01-19T12:42:33.747Z,13.77
2023-01-19T12:47:38.943Z,12.17
2023-01-19T12:52:48.050Z,9.67
2023-01-19T12:57:49.694Z,11.07
2023-01-19T13:02:55.898Z,10.30
2023-01-19T13:08:06.904Z,10.82
2023-01-19T13:13:21.235Z,10.07
2023-01-19T13:18:29.987Z,10.85
2023-01-19T13:23:51.801Z,9.57
2023-01-19T13:28:57.996Z,4.43
2023-01-19T13:34:02.814Z,8.23
2023-01-19T13:39:11.904Z,7.25
2023-01-19T13:44:18.824Z,7.20
2023-01-19T13:49:31.544Z,9.30
2023-01-19T13:54:37.267Z,11.17
2023-01-19T13:59:45.159Z,11.93
2023-01-19T14:04:54.332Z,12.70
2023-01-19T14:10:13.188Z,12.00
2023-01-19T14:15:21.097Z,6.10
2023-01-19T14:20:32.831Z,8.80
2023-01-19T14:25:39.629Z,8.90
2023-01-19T14:31:02.483Z,12.47
2023-01-19T14:36:17.992Z,10.07
2023-01-19T14:41:37.094Z,11.33
2023-01-19T14:46:49.260Z,6.90
2023-01-19T14:51:52.041Z,8.87
2023-01-19T14:56:54.174Z,12.00
2023-01-19T15:01:56.151Z,9.07
2023-01-19T15:07:00.185Z,7.87
2023-01-19T15:12:02.325Z,8.57
2023-01-19T15:17:04.924Z,9.37
2023-01-19T15:22:16.078Z,6.33
2023-01-19T15:27:17.902Z,7.13
2023-01-19T15:32:24.386Z,6.53
2023-01-19T15:37:28.454Z,4.97
2023-01-19T15:42:35.290Z,8.13
2023-01-19T15:47:37.165Z,8.17
2023-01-19T15:52:38.998Z,8.57
2023-01-19T15:57:40.732Z,13.10
2023-01-19T16:02:45.848Z,7.73
2023-01-19T16:07:49.879Z,12.57
2023-01-19T16:12:54.193Z,7.53
2023-01-19T16:18:00.807Z,11.00
2023-01-19T16:23:15.151Z,6.33
2023-01-19T16:28:17.152Z,6.20
2023-01-19T16:33:19.321Z,9.57
2023-01-19T16:38:23.228Z,10.27
2023-01-19T16:43:26.343Z,7.43
2023-01-19T16:48:33.883Z,8.07
2023-01-19T16:53:38.450Z,4.87
2023-01-19T16:58:41.155Z,8.23
2023-01-19T17:03:43.413Z,9.53
2023-01-19T17:08:45.233Z,10.37
2023-01-19T17:14:02.386Z,11.13
2023-01-19T17:19:09.835Z,13.70
2023-01-19T17:24:11.649Z,13.83
2023-01-19T17:29:16.238Z,9.53
2023-01-19T17:34:22.730Z,9.00
2023-01-19T17:39:24.420Z,10.77
2023-01-19T17:44:26.215Z,11.23
2023-01-19T17:49:28.000Z,8.60
2023-01-19T17:54:30.743Z,18.10
2023-01-19T17:59:35.575Z,10.13
2023-01-19T18:04:42.135Z,6.03
2023-01-19T18:09:45.758Z,9.10
2023-01-19T18:14:50.935Z,9.90
2023-01-19T18:19:54.978Z,13.55
2023-01-19T18:24:56.753Z,13.17
2023-01-19T18:29:58.546Z,14.33
2023-01-19T18:35:00.925Z,9.63
2023-01-19T18:40:07.993Z,10.77
2023-01-19T18:45:12.520Z,8.17
2023-01-19T18:50:18.941Z,11.27
2023-01-19T18:55:24.052Z,15.40
2023-01-19T19:00:25.982Z,11.43
2023-01-19T19:05:30.031Z,10.90
2023-01-19T19:10:36.337Z,10.90
2023-01-19T19:15:39.277Z,11.80
2023-01-19T19:20:44.142Z,7.63
2023-01-19T19:25:48.517Z,11.13
2023-01-19T19:30:52.599Z,12.43
2023-01-19T19:35:59.885Z,10.00
2023-01-19T19:41:10.607Z,9.43
2023-01-19T19:46:16.411Z,6.70
2023-01-19T19:51:25.721Z,7.80
2023-01-19T19:56:29.407Z,10.40
2023-01-19T20:01:33.380Z,5.63
2023-01-19T20:06:39.918Z,8.03
2023-01-19T20:11:43.340Z,10.93
2023-01-19T20:16:50.991Z,13.77
2023-01-19T20:21:57.981Z,8.87
2023-01-19T20:27:04.464Z,8.77
2023-01-19T20:32:10.858Z,7.40
2023-01-19T20:37:13.532Z,8.70
2023-01-19T20:42:16.533Z,11.57
2023-01-19T20:47:18.514Z,6.63
2023-01-19T20:52:21.579Z,10.30
2023-01-19T20:57:23.371Z,9.87
2023-01-19T21:02:33.779Z,12.07
2023-01-19T21:07:37.803Z,12.97
2023-01-19T21:12:42.409Z,8.17
2023-01-19T21:17:46.860Z,10.63
2023-01-19T21:22:51.352Z,13.90
2023-01-19T21:27:53.170Z,9.03
2023-01-19T21:33:02.214Z,10.00
2023-01-19T21:38:06.737Z,9.47
2023-01-19T21:43:08.708Z,17.80
2023-01-19T21:48:15.407Z,8.83
2023-01-19T21:53:17.078Z,12.40
2023-01-19T21:58:21.777Z,16.27
2023-01-19T22:03:28.722Z,8.70
2023-01-19T22:08:33.764Z,7.50
2023-01-19T22:13:38.477Z,7.97
2023-01-19T22:18:49.203Z,8.10
2023-01-19T22:23:56.249Z,10.83
2023-01-19T22:29:02.728Z,9.87
2023-01-19T22:34:10.813Z,9.47
2023-01-19T22:39:15.080Z,10.30
2023-01-19T22:44:23.866Z,10.17
2023-01-19T22:49:25.616Z,8.27
2023-01-19T22:54:30.211Z,10.53
2023-01-19T22:59:32.188Z,13.10
2023-01-19T23:04:34.010Z,9.93
2023-01-19T23:09:42.718Z,9.90
2023-01-19T23:14:44.399Z,8.43
2023-01-19T23:19:48.416Z,10.47
2023-01-19T23:24:50.148Z,9.57
2023-01-19T23:30:10.161Z,15.57
2023-01-19T23:35:14.447Z,11.10
2023-01-19T23:40:21.865Z,8.90
2023-01-19T23:45:25.900Z,12.47
2023-01-19T23:50:29.756Z,9.83
2023-01-19T23:55:34.042Z,10.57
